Paxville, South Carolina
Current Conditions -  °F | °C
As of 9:15 AM on Saturday 20 Dec 2014 (Local Time) from KCKI Reporting Station
Moderate Rain Moderate Rain  
Wind Chill: 46°   Ceiling: NA
Heat Index: 46°   Visibility: 5mi
Dew Point: 46°   Wind: 0mph
Humidity: 100%   Direction: NA
Pressure: 30.23"   Gusts: NA
Location:  33.6434°N, 80.1966°W
Report Text: KCKI 201415Z AUTO 00000KT 5SM RA 08/08 A3023 RMK AO2 P0001
Loading
Personal Weather Stations






























Interactive Weather Map New forecast layout! Learn more

10-Day Weather Forecast

Advertisements
Track Severe Weather on mobile